Terminal Aerodrome Forecast
Issued by NWS

Home | Current Version | Previous Version | Text Only | Print | Product List | Glossary On
Versions: 1 2 3 4 5 6 7 8 9 10 11 12 13 14 15 16 17 18 19 20 21 22
000
FTUS43 KIND 292000 AAA
TAFBMG
TAF AMD
KBMG 292033Z 2921/3018 30008KT P6SM VCSH BKN060
     FM300200 00000KT P6SM SCT060
      TEMPO 3008/3012 5SM BR
     FM301600 29005KT P6SM BKN040=

USA.gov is the U.S. government's official web portal to all federal, state and local government web resources and services.